• Join FlightAware (Why Join?)
  • Login
  • US Flag 
05:22AM EDT


 

Airport Tracker/Info


-or-


 

Live Flight TrackerFlight Track Log ✈ AWE3418 ✈ 07-Feb-2014 ✈ KPHL - KALB

Flight Track Log - Related Links

Times and Time Zones

All times are in EST time to prevent confusion due to time zone crossing. See the AWE3418 flight status page for this flight to view local times or setup timezone preferences in your user account.

Time Position Orientation Groundspeed Altitude Reporting Facility
EST Latitude Longitude Course Direction KTS MPH feet Rate Location/Type
06:58PM 39.8667 -75.2667 37° Northeast 169 194 800  Level Philadelphia TRACON
06:59PM 39.8167 -75.3333 226° Southwest 211 243 4,100 2,700 Climbing Philadelphia TRACON
07:00PM 39.7500 -75.3667 201° Southwest 270 311 7,300 3,120 Climbing Philadelphia TRACON
07:01PM 39.7333 -75.2667 102° East 337 388 10,400 2,280 Climbing Philadelphia TRACON
07:02PM 39.7500 -75.1500 79° East 376 433 12,000 600 Climbing Philadelphia TRACON
07:03PM 39.7867 -74.6967 37° Northeast  Level FlightAware Approximate
07:04PM 39.7700 -74.9058 84° East 388 447 12,100  Level New York Center
07:05PM 39.7869 -74.7800 80° East 388 447 12,900 1,680 Climbing New York Center
07:06PM 39.8386 -74.6692 59° Northeast 367 422 15,500 2,460 Climbing New York Center
07:07PM 39.9247 -74.5875 36° Northeast 361 415 17,900 2,220 Climbing New York Center
07:08PM 40.0217 -74.4897 38° Northeast 377 434 20,000 1,500 Climbing New York Center
07:09PM 40.1206 -74.3947 36° Northeast 424 488 21,000 480 Climbing New York Center
07:10PM 40.2194 -74.2964 37° Northeast 441 507 21,000  Level New York Center
07:11PM 40.3181 -74.1981 37° Northeast 441 507 21,000  Level New York Center
07:12PM 40.4167 -74.0994 37° Northeast 446 513 21,000  Level New York Center
07:13PM 40.5828 -73.9844 28° Northeast 432 497 21,000  Level Boston Center
07:14PM 40.6931 -73.9208 24° Northeast 431 496 21,000  Level Boston Center
07:15PM 40.8000 -73.8483 27° Northeast 435 501 21,000  Level Boston Center
07:16PM 40.8956 -73.7367 41° Northeast 451 519 21,000  Level Boston Center
07:17PM 40.9964 -73.6458 34° Northeast 437 503 21,000  Level Boston Center
07:18PM 41.1061 -73.6286 North 403 464 21,000  Level Boston Center
07:19PM 41.2161 -73.6194 North 396 456 21,000 -780 Level Boston Center
07:21PM 41.3494 -73.6031 North 399 459 19,500 -1,500 Descending Boston Center
07:22PM 41.4569 -73.5933 North 381 438 18,000 -1,500 Descending Boston Center
07:23PM 41.5594 -73.5833 North 372 428 16,500 -1,440 Descending Boston Center
07:24PM 41.6539 -73.5731 North 344 396 15,100 -840 Descending Boston Center
07:25PM 41.7539 -73.5636 North 337 388 14,900 -960 Descending Boston Center
07:26PM 41.8472 -73.5531 North 337 388 13,200 -1,680 Descending Boston Center
07:26PM 41.8919 -73.5483 North 337 388 12,400 -1,680 Descending Boston Center
07:27PM 41.9397 -73.5428 North 334 384 11,500 -1,560 Descending Boston Center
07:27PM 41.9775 -73.5392 North 332 382 11,000 -540 Descending Boston Center
07:28PM 42.0306 -73.5328 North 328 377 11,000  Level Boston Center
07:28PM 42.0647 -73.5306 North 323 372 11,000  Level Boston Center
07:29PM 42.1139 -73.5269 North 320 368 11,000  Level Boston Center
07:29PM 42.1478 -73.5464 337° Northwest 299 344 11,000  Level Boston Center
07:30PM 42.1917 -73.5617 346° North 292 336 11,000 -540 Level Boston Center
07:30PM 42.2233 -73.5800 337° Northwest 280 322 10,500 -1,620 Descending Boston Center
07:31PM 42.2633 -73.5983 341° North 277 319 9,400 -1,920 Descending Boston Center
07:31PM 42.2942 -73.6150 338° Northwest 263 303 8,600 -1,800 Descending Boston Center
07:32PM 42.3419 -73.6386 340° North 263 303 7,600 -1,680 Descending Boston Center
07:32PM 42.3608 -73.6489 338° Northwest 256 295 6,900 -1,980 Descending Boston Center
07:33PM 42.4075 -73.6728 339° North 255 293 5,600 -2,040 Descending Boston Center
07:33PM 42.4272 -73.6856 334° Northwest 252 290 4,900 -1,920 Descending Boston Center
07:34PM 42.4739 -73.7069 341° North 256 295 3,700 -1,800 Descending Boston Center
07:34PM 42.4883 -73.7147 338° Northwest 256 295 3,300 -600 Descending Boston Center
07:35PM 42.5361 -73.7386 340° North 242 278 3,100 -300 Descending Boston Center
07:35PM 42.5456 -73.7425 343° North 212 244 3,000 -1,140 Descending Boston Center
07:36PM 42.5861 -73.7714 332° Northwest 192 221 2,000 -1,020 Descending Boston Center
07:36PM 42.5906 -73.7781 312° West 178 205 2,000  Level Boston Center
07:37PM 42.6400 -73.8006 341° North 165 190 2,000 -300 Level Boston Center
07:38PM 42.6850 -73.8011 359° North 161 185 1,400 -660 Descending Boston Center
07:39PM 42.7189 -73.8039 357° North 119 137 700 -600 Descending Boston Center
07:40PM 42.7489 -73.8044 359° North 125 144 300 -420 Descending Boston Center
07:42PM 42.7491 -73.8020 83° East  Level Estimated
07:49PM 42.7491 -73.8020 304° West  Level Estimated